DAL1714 KLAX-KSEA
Flight info
| Callsign | DAL1714 |
|---|---|
| Flight time | N/A |
| Altitude | 38000 |
| Route | LADYJ4 CSTRO SHIMR LKV HAWKZ8 |
| Aircraft | B738/M-SDE2E3FGHIRWXY/LB1 |
Departure
| Time | 2026-05-05 12:03 |
|---|---|
| Airport | Los Angeles International Airport (KLAX) |
Arrival
| Time | N/A |
|---|---|
| Airport | Seattle–Tacoma International Airport (KSEA) |
| Time | Latitude | Longitude | Altitude | Speed | Heading |
|---|---|---|---|---|---|
| 2026-05-05 11:35 | 33.94708 | -118.40783 | 94 ft | 0 kts | 163° |
| 2026-05-05 11:51 | 33.94713 | -118.40785 | 92 ft | 3 kts | 163° |
| 2026-05-05 11:52 | 33.94735 | -118.40793 | 92 ft | 3 kts | 163° |
| 2026-05-05 11:52 | 33.94755 | -118.40795 | 91 ft | 4 kts | 227° |
| 2026-05-05 11:52 | 33.94763 | -118.40770 | 90 ft | 3 kts | 262° |
| 2026-05-05 11:52 | 33.94766 | -118.40744 | 92 ft | 0 kts | 262° |
| 2026-05-05 11:56 | 33.94764 | -118.40758 | 95 ft | 6 kts | 263° |
| 2026-05-05 11:56 | 33.94758 | -118.40817 | 95 ft | 7 kts | 263° |
| 2026-05-05 11:56 | 33.94769 | -118.40871 | 94 ft | 7 kts | 321° |
| 2026-05-05 11:57 | 33.94816 | -118.40876 | 95 ft | 7 kts | 14° |
| 2026-05-05 11:57 | 33.94839 | -118.40831 | 93 ft | 7 kts | 83° |
| 2026-05-05 11:57 | 33.94845 | -118.40775 | 93 ft | 7 kts | 82° |
| 2026-05-05 11:57 | 33.94851 | -118.40718 | 93 ft | 8 kts | 83° |
| 2026-05-05 11:58 | 33.94859 | -118.40639 | 93 ft | 10 kts | 82° |
| 2026-05-05 11:58 | 33.94868 | -118.40556 | 94 ft | 10 kts | 83° |
| 2026-05-05 11:58 | 33.94876 | -118.40474 | 94 ft | 10 kts | 82° |
| 2026-05-05 11:58 | 33.94885 | -118.40389 | 93 ft | 11 kts | 85° |
| 2026-05-05 11:59 | 33.94894 | -118.40293 | 93 ft | 11 kts | 83° |
| 2026-05-05 11:59 | 33.94904 | -118.40199 | 95 ft | 11 kts | 83° |
| 2026-05-05 11:59 | 33.94914 | -118.40108 | 94 ft | 11 kts | 84° |
| 2026-05-05 11:59 | 33.94923 | -118.40020 | 92 ft | 11 kts | 82° |
| 2026-05-05 12:00 | 33.94941 | -118.39938 | 93 ft | 10 kts | 51° |
| 2026-05-05 12:00 | 33.95005 | -118.39920 | 94 ft | 10 kts | 341° |
| 2026-05-05 12:00 | 33.95040 | -118.39967 | 93 ft | 5 kts | 264° |
| 2026-05-05 12:00 | 33.95039 | -118.39974 | 94 ft | 0 kts | 261° |
| 2026-05-05 12:01 | 33.95028 | -118.40091 | 94 ft | 43 kts | 263° |
| 2026-05-05 12:01 | 33.94964 | -118.40714 | 99 ft | 98 kts | 263° |
| 2026-05-05 12:01 | 33.94870 | -118.41626 | 95 ft | 121 kts | 263° |
| 2026-05-05 12:01 | 33.94763 | -118.42705 | 106 ft | 137 kts | 264° |
| 2026-05-05 12:02 | 33.94665 | -118.43830 | 279 ft | 134 kts | 265° |
| 2026-05-05 12:02 | 33.94581 | -118.44997 | 300 ft | 148 kts | 266° |
| 2026-05-05 12:02 | 33.94509 | -118.46240 | 473 ft | 150 kts | 265° |
| 2026-05-05 12:02 | 33.94408 | -118.47511 | 614 ft | 156 kts | 264° |
| 2026-05-05 12:03 | 33.94335 | -118.48799 | 788 ft | 157 kts | 283° |